createdAt,value
2022-12-18T00:00:57.602Z,102513.19
2022-12-18T00:05:09.323Z,102518.44
2022-12-18T00:09:21.315Z,102493.66
2022-12-18T00:13:36.657Z,102488.66
2022-12-18T00:17:48.457Z,102502.91
2022-12-18T00:22:00.096Z,102485.84
2022-12-18T00:26:18.088Z,102485.91
2022-12-18T00:30:29.960Z,102504.22
2022-12-18T00:34:41.586Z,102479.50
2022-12-18T00:38:55.750Z,102470.22
2022-12-18T00:43:07.352Z,102486.97
2022-12-18T00:47:23.160Z,102493.94
2022-12-18T00:51:34.887Z,102499.19
2022-12-18T00:55:46.831Z,102495.19
2022-12-18T00:59:58.659Z,102488.00
2022-12-18T01:04:10.359Z,102498.75
2022-12-18T01:08:22.766Z,102511.41
2022-12-18T01:12:35.038Z,102495.66
2022-12-18T01:16:46.716Z,102487.94
2022-12-18T01:20:58.524Z,102472.44
2022-12-18T01:25:10.296Z,102467.19
2022-12-18T01:29:21.882Z,102465.50
2022-12-18T01:33:33.472Z,102469.44
2022-12-18T01:37:45.009Z,102487.78
2022-12-18T01:42:02.635Z,102488.53
2022-12-18T01:46:18.762Z,102487.88
2022-12-18T01:50:40.929Z,102484.56
2022-12-18T01:54:53.392Z,102480.50
2022-12-18T01:59:10.202Z,102498.38
2022-12-18T02:03:22.042Z,102494.38
2022-12-18T02:08:24.399Z,102490.31
2022-12-18T02:13:02.905Z,102496.56
2022-12-18T02:17:24.260Z,102488.06
2022-12-18T02:21:58.357Z,102503.72
2022-12-18T02:26:35.652Z,102488.22
2022-12-18T02:30:50.146Z,102479.59
2022-12-18T02:35:05.495Z,102483.91
2022-12-18T02:39:21.826Z,102489.22
2022-12-18T02:43:48.635Z,102491.94
2022-12-18T02:48:03.572Z,102473.66
2022-12-18T02:52:26.943Z,102491.78
2022-12-18T02:56:46.944Z,102471.38
2022-12-18T03:01:12.578Z,102492.09
2022-12-18T03:05:39.787Z,102477.38
2022-12-18T03:09:55.085Z,102479.25
2022-12-18T03:14:08.562Z,102476.53
2022-12-18T03:18:26.365Z,102468.84
2022-12-18T03:22:40.044Z,102471.47
2022-12-18T03:26:55.279Z,102467.00
2022-12-18T03:31:10.789Z,102457.75
2022-12-18T03:35:27.354Z,102458.44
2022-12-18T03:39:39.456Z,102446.50
2022-12-18T03:44:14.888Z,102439.66
2022-12-18T03:48:40.242Z,102442.25
2022-12-18T03:53:03.870Z,102434.25
2022-12-18T03:57:22.553Z,102437.09
2022-12-18T04:01:41.443Z,102434.47
2022-12-18T04:05:56.364Z,102429.41
2022-12-18T04:10:10.643Z,102433.91
2022-12-18T04:14:26.175Z,102429.59
2022-12-18T04:18:41.006Z,102436.34
2022-12-18T04:22:53.743Z,102412.34
2022-12-18T04:27:06.251Z,102419.28
2022-12-18T04:31:24.727Z,102408.94
2022-12-18T04:35:36.486Z,102405.56
2022-12-18T04:39:48.252Z,102410.72
2022-12-18T04:44:06.840Z,102405.47
2022-12-18T04:48:18.416Z,102418.19
2022-12-18T04:52:32.859Z,102414.78
2022-12-18T04:56:44.461Z,102418.19
2022-12-18T05:00:56.045Z,102420.81
2022-12-18T05:05:08.197Z,102417.56
2022-12-18T05:09:19.774Z,102441.00
2022-12-18T05:13:32.463Z,102436.78
2022-12-18T05:17:43.965Z,102436.25
2022-12-18T05:21:55.466Z,102441.50
2022-12-18T05:26:08.810Z,102457.91
2022-12-18T05:30:20.461Z,102455.81
2022-12-18T05:34:32.093Z,102468.13
2022-12-18T05:38:43.705Z,102494.09
2022-12-18T05:42:55.262Z,102494.16
2022-12-18T05:47:07.084Z,102485.63
2022-12-18T05:51:21.490Z,102479.56
2022-12-18T05:55:37.422Z,102468.22
2022-12-18T05:59:49.010Z,102454.75
2022-12-18T06:04:00.666Z,102433.88
2022-12-18T06:08:13.953Z,102441.25
2022-12-18T06:12:25.580Z,102424.75
2022-12-18T06:16:37.339Z,102410.03
2022-12-18T06:21:00.258Z,102428.47
2022-12-18T06:25:11.847Z,102417.50
2022-12-18T06:29:23.525Z,102426.63
2022-12-18T06:33:35.762Z,102410.19
2022-12-18T06:37:47.291Z,102410.72
2022-12-18T06:41:59.000Z,102396.06
2022-12-18T06:46:29.129Z,102397.78
2022-12-18T06:50:43.469Z,102401.75
2022-12-18T06:54:55.109Z,102401.91
2022-12-18T06:59:06.694Z,102380.94
2022-12-18T07:03:18.262Z,102366.38
2022-12-18T07:07:29.790Z,102370.44
2022-12-18T07:11:41.417Z,102368.59
2022-12-18T07:15:52.948Z,102381.53
2022-12-18T07:20:05.007Z,102389.03
2022-12-18T07:24:16.602Z,102381.09
2022-12-18T07:28:28.252Z,102384.06
2022-12-18T07:32:39.756Z,102367.47
2022-12-18T07:36:51.276Z,102361.13
2022-12-18T07:41:03.964Z,102361.59
2022-12-18T07:45:18.273Z,102350.34
2022-12-18T07:49:29.802Z,102358.72
2022-12-18T07:53:41.872Z,102347.03
2022-12-18T07:57:59.207Z,102326.03
2022-12-18T08:02:12.691Z,102321.81
2022-12-18T08:06:24.841Z,102336.16
2022-12-18T08:10:36.609Z,102333.69
2022-12-18T08:14:48.090Z,102325.13
2022-12-18T08:18:59.614Z,102320.19
2022-12-18T08:23:11.102Z,102331.81
2022-12-18T08:27:30.294Z,102314.34
2022-12-18T08:31:42.140Z,102311.41
2022-12-18T08:35:54.113Z,102305.78
2022-12-18T08:40:06.391Z,102322.84
2022-12-18T08:44:36.656Z,102313.63
2022-12-18T08:48:48.927Z,102311.66
2022-12-18T08:53:01.131Z,102316.13
2022-12-18T08:57:12.671Z,102327.16
2022-12-18T09:01:25.006Z,102311.91
2022-12-18T09:05:37.191Z,102312.88
2022-12-18T09:09:48.893Z,102332.81
2022-12-18T09:14:01.938Z,102317.50
2022-12-18T09:18:14.807Z,102307.50
2022-12-18T09:22:26.373Z,102317.63
2022-12-18T09:26:38.156Z,102304.84
2022-12-18T09:30:51.108Z,102309.28
2022-12-18T09:35:02.815Z,102306.84
2022-12-18T09:39:14.760Z,102302.63
2022-12-18T09:43:42.183Z,102295.94
2022-12-18T09:47:56.509Z,102296.16
2022-12-18T09:52:29.761Z,102290.75
2022-12-18T09:56:43.937Z,102300.94
2022-12-18T10:00:56.690Z,102290.63
2022-12-18T10:05:13.361Z,102266.78
2022-12-18T10:10:12.614Z,102285.00
2022-12-18T10:14:48.498Z,102281.81
2022-12-18T10:19:18.300Z,102262.81
2022-12-18T10:24:00.133Z,102268.66
2022-12-18T10:28:14.951Z,102237.63
2022-12-18T10:32:29.605Z,102249.16
2022-12-18T10:36:41.661Z,102247.75
2022-12-18T10:40:53.185Z,102247.94
2022-12-18T10:45:11.389Z,102240.56
2022-12-18T10:49:32.220Z,102239.28
2022-12-18T10:53:44.041Z,102219.97
2022-12-18T10:58:22.232Z,102205.44
2022-12-18T11:02:39.401Z,102218.56
2022-12-18T11:07:01.594Z,102200.19
2022-12-18T11:11:23.940Z,102198.03
2022-12-18T11:15:35.742Z,102196.72
2022-12-18T11:19:54.964Z,102200.97
2022-12-18T11:24:20.305Z,102181.97
2022-12-18T11:28:43.441Z,102172.97
2022-12-18T11:32:59.617Z,102155.78
2022-12-18T11:37:14.075Z,102150.50
2022-12-18T11:42:10.584Z,102172.25
2022-12-18T11:46:44.469Z,102153.41
2022-12-18T11:50:58.212Z,102175.34
2022-12-18T11:55:50.217Z,102164.91
2022-12-18T12:00:18.972Z,102163.09
2022-12-18T12:05:01.113Z,102135.94
2022-12-18T12:09:39.140Z,102119.63
2022-12-18T12:14:12.612Z,102105.56
2022-12-18T12:18:53.099Z,102120.28
2022-12-18T12:23:12.351Z,102101.69
2022-12-18T12:27:43.958Z,102120.88
2022-12-18T12:32:17.112Z,102103.72
2022-12-18T12:36:58.062Z,102112.06
2022-12-18T12:41:51.066Z,102098.72
2022-12-18T12:46:11.842Z,102088.75
2022-12-18T12:50:24.678Z,102084.97
2022-12-18T12:54:37.627Z,102064.59
2022-12-18T12:59:39.533Z,102070.22
2022-12-18T13:04:00.879Z,102061.31
2022-12-18T13:08:27.397Z,102052.66
2022-12-18T13:12:58.333Z,102041.25
2022-12-18T13:17:22.138Z,102056.72
2022-12-18T13:21:35.007Z,102053.09
2022-12-18T13:25:47.122Z,102028.66
2022-12-18T13:29:59.456Z,102020.34
2022-12-18T13:43:49.351Z,102047.56
2022-12-18T13:48:01.096Z,102024.00
2022-12-18T13:52:22.264Z,101994.84
2022-12-18T13:56:35.617Z,102008.72
2022-12-18T14:00:47.722Z,102008.47
2022-12-18T14:05:00.212Z,101991.13
2022-12-18T14:09:20.341Z,101997.44
2022-12-18T14:13:38.357Z,101979.03
2022-12-18T14:17:52.005Z,101990.00
2022-12-18T14:22:04.198Z,101973.50
2022-12-18T14:26:24.041Z,101973.56
2022-12-18T14:30:44.435Z,101973.44
2022-12-18T14:34:56.285Z,101980.78
2022-12-18T14:39:18.405Z,101951.69
2022-12-18T14:43:34.224Z,101941.03
2022-12-18T14:47:46.002Z,101938.81
2022-12-18T14:52:07.255Z,101950.16
2022-12-18T14:56:26.779Z,101945.63
2022-12-18T15:00:45.575Z,101938.53
2022-12-18T15:05:11.298Z,101924.41
2022-12-18T15:09:26.926Z,101936.31
2022-12-18T15:13:39.023Z,101925.25
2022-12-18T15:17:58.232Z,101929.81
2022-12-18T15:22:21.409Z,101926.34
2022-12-18T15:26:38.576Z,101924.47
2022-12-18T15:31:22.335Z,101944.66
2022-12-18T15:35:33.934Z,101935.63
2022-12-18T15:39:45.591Z,101913.47
2022-12-18T15:43:57.210Z,101915.00
2022-12-18T15:48:29.135Z,101918.31
2022-12-18T15:52:45.081Z,101926.69
2022-12-18T15:57:15.225Z,101921.06
2022-12-18T16:01:30.149Z,101931.00
2022-12-18T16:05:41.972Z,101925.13
2022-12-18T16:09:53.772Z,101925.25
2022-12-18T16:14:22.441Z,101913.00
2022-12-18T16:18:33.994Z,101913.00
2022-12-18T16:22:47.071Z,101900.16
2022-12-18T16:27:00.685Z,101880.56
2022-12-18T16:31:12.340Z,101877.88
2022-12-18T16:35:25.124Z,101875.81
2022-12-18T16:39:38.074Z,101873.59
2022-12-18T16:43:54.690Z,101860.59
2022-12-18T16:48:06.776Z,101864.25
2022-12-18T16:52:18.913Z,101861.31
2022-12-18T16:56:32.259Z,101854.22
2022-12-18T17:00:43.808Z,101856.31
2022-12-18T17:04:57.253Z,101853.66
2022-12-18T17:09:24.686Z,101841.13
2022-12-18T17:13:36.513Z,101837.66
2022-12-18T17:17:48.154Z,101834.88
2022-12-18T17:22:00.082Z,101835.31
2022-12-18T17:26:13.008Z,101831.66
2022-12-18T17:30:24.593Z,101845.72
2022-12-18T17:34:37.029Z,101849.78
2022-12-18T17:38:53.717Z,101849.22
2022-12-18T17:43:05.342Z,101836.16
2022-12-18T17:47:17.044Z,101835.97
2022-12-18T17:51:30.217Z,101848.13
2022-12-18T17:55:41.859Z,101842.13
2022-12-18T17:59:53.472Z,101861.22
2022-12-18T18:04:05.624Z,101843.25
2022-12-18T18:08:17.344Z,101846.91
2022-12-18T18:12:47.564Z,101844.91
2022-12-18T18:17:04.323Z,101859.41
2022-12-18T18:21:16.731Z,101851.47
2022-12-18T18:25:28.628Z,101841.56
2022-12-18T18:29:40.421Z,101844.22
2022-12-18T18:33:52.315Z,101842.81
2022-12-18T18:38:04.480Z,101847.00
2022-12-18T18:42:16.141Z,101836.94
2022-12-18T18:46:27.785Z,101850.34
2022-12-18T18:50:39.407Z,101842.13
2022-12-18T18:55:11.599Z,101848.84
2022-12-18T18:59:31.163Z,101840.19
2022-12-18T19:03:44.514Z,101830.72
2022-12-18T19:07:56.266Z,101824.19
2022-12-18T19:12:26.708Z,101815.28
2022-12-18T19:16:38.877Z,101807.63
2022-12-18T19:20:59.901Z,101830.94
2022-12-18T19:25:11.488Z,101810.31
2022-12-18T19:29:23.288Z,101814.66
2022-12-18T19:33:43.682Z,101820.47
2022-12-18T19:38:10.858Z,101813.81
2022-12-18T19:42:28.064Z,101825.09
2022-12-18T19:46:46.092Z,101839.00
2022-12-18T19:50:57.781Z,101834.16
2022-12-18T19:55:09.700Z,101826.22
2022-12-18T19:59:27.255Z,101814.66
2022-12-18T20:03:40.415Z,101829.16
2022-12-18T20:07:59.001Z,101817.03
2022-12-18T20:12:26.229Z,101829.63
2022-12-18T20:16:41.483Z,101809.94
2022-12-18T20:20:53.613Z,101796.53
2022-12-18T20:25:08.323Z,101809.50
2022-12-18T20:29:19.909Z,101795.88
2022-12-18T20:33:31.503Z,101798.19
2022-12-18T20:37:49.863Z,101823.69
2022-12-18T20:42:03.764Z,101822.84
2022-12-18T20:46:16.966Z,101825.94
2022-12-18T20:51:09.529Z,101829.41
2022-12-18T20:55:49.099Z,101821.94
2022-12-18T21:00:18.865Z,101816.97
2022-12-18T21:04:40.694Z,101809.28
2022-12-18T21:08:54.153Z,101789.94
2022-12-18T21:13:15.266Z,101788.41
2022-12-18T21:17:44.728Z,101775.03
2022-12-18T21:22:08.693Z,101738.78
2022-12-18T21:26:34.005Z,101784.78
2022-12-18T21:30:50.281Z,101754.13
2022-12-18T21:35:13.040Z,101733.63
2022-12-18T21:39:30.025Z,101744.38
2022-12-18T21:44:03.771Z,101759.16
2022-12-18T21:48:30.417Z,101749.03
2022-12-18T21:52:48.492Z,101741.25
2022-12-18T21:57:25.569Z,101722.75
2022-12-18T22:01:46.541Z,101727.88
2022-12-18T22:06:09.805Z,101721.47
2022-12-18T22:10:31.983Z,101723.56
2022-12-18T22:15:03.480Z,101719.38
2022-12-18T22:24:07.304Z,101699.59
2022-12-18T22:28:53.731Z,101700.47
2022-12-18T22:33:11.263Z,101686.81
2022-12-18T22:37:35.172Z,101678.63
2022-12-18T22:41:55.661Z,101666.50
2022-12-18T22:46:25.216Z,101654.53
2022-12-18T22:50:40.531Z,101627.81
2022-12-18T22:54:55.648Z,101629.38
2022-12-18T22:59:20.951Z,101646.19
2022-12-18T23:03:45.085Z,101591.94
2022-12-18T23:08:01.659Z,101587.03
2022-12-18T23:12:28.914Z,101621.47
2022-12-18T23:16:49.637Z,101593.31
2022-12-18T23:21:15.230Z,101569.25
2022-12-18T23:25:38.840Z,101582.06
2022-12-18T23:29:54.998Z,101576.78
2022-12-18T23:34:13.961Z,101556.88
2022-12-18T23:38:39.481Z,101552.69
2022-12-18T23:47:38.681Z,101504.53
2022-12-18T23:51:55.300Z,101518.34
2022-12-18T23:56:12.807Z,101558.66
